Terminal Aerodrome Forecast
Issued by NWS Jackson, KY

Home | Current Version | Previous Version | Text Only | Print | Product List | Glossary On
Versions: 1 2 3 4 5 6 7 8 9 10 11 12 13 14 15
000
FTUS43 KJKL 230532
TAFLOZ
TAF
KLOZ 230532Z 2306/2406 24014G22KT P6SM -SHRA BKN050
     FM230900 23014G22KT P6SM SCT100
     FM231400 24014G22KT P6SM BKN030
     FM232300 26010KT P6SM OVC015=

USA.gov is the U.S. government's official web portal to all federal, state and local government web resources and services.